PWSweather.com
Personal Weather Stations
Station Observations
RAINMAN1
Jacksonville, FL 32224

Jacksonville, FL 32224

Lat: 30.28041649, Lon: -81.46911621

Elevation: 26

Station Type: Tycon TP1080WC

Latest ConditionsUpdated 3:50:02 PM EDT Tuesday, Sep 30, 2014
Currently Today's Max Today's Min Today's Average
Temperature 80.8°F27.1°C 81.9°F27.7°C 72.9°F22.7°C 74.8°F23.8°C
Dew Point 75.2°F24.0°C 78.0°F25.6°C 72.6°F22.6°C 74.2°F23.4°C
Winds 10.3 mph N16.6 kmh N 11.0 mph NE17.7 kmh NE - 4.0 mph 6.4 kmh
Wind Gusts 14.5 mph23.3 kmh 15.9 mph25.6 kmh - -
Humidity 83% 99% 80% 98%
Pressure 29.51 in999.3 mb 29.56 in1001.0 mb 29.47 in998.0 mb -
Precipitation - 0.03 in0.8 mm - -
Hour Temp Dew Point Humidity Winds Wind Gusts Pressure Precip Precip Rate Daily Precip Total
03:50 PM 80.8°F27.1°C 75.2°F24.0°C 83% 10.3 mph N16.6 kmh N 14.5 mph23.3 kmh 29.51 in999.3 mb 0.00 in0.0 mm 0.00 in/hr0.0 mm/hr 0.03 in0.8 mm
03:45 PM 81.1°F27.3°C 74.8°F23.8°C 81% 9.3 mph NNE15.0 kmh NNE 14.5 mph23.3 kmh 29.51 in999.3 mb 0.00 in0.0 mm 0.00 in/hr0.0 mm/hr 0.03 in0.8 mm
03:40 PM 81.9°F27.7°C 75.1°F23.9°C 80% 7.5 mph NE12.1 kmh NE 11.4 mph18.3 kmh 29.51 in999.3 mb 0.00 in0.0 mm 0.00 in/hr0.0 mm/hr 0.03 in0.8 mm
03:35 PM 81.5°F27.5°C 75.5°F24.2°C 82% 9.6 mph NNE15.4 kmh NNE 15.9 mph25.6 kmh 29.51 in999.3 mb 0.00 in0.0 mm 0.00 in/hr0.0 mm/hr 0.03 in0.8 mm
03:30 PM 80.6°F27.0°C 75.0°F23.9°C 83% 11.0 mph NE17.7 kmh NE 15.9 mph25.6 kmh 29.52 in999.7 mb 0.00 in0.0 mm 0.00 in/hr0.0 mm/hr 0.03 in0.8 mm
03:25 PM 81.0°F27.2°C 75.0°F23.9°C 82% 10.0 mph NE16.1 kmh NE 13.6 mph21.9 kmh 29.52 in999.7 mb 0.00 in0.0 mm 0.00 in/hr0.0 mm/hr 0.03 in0.8 mm
03:20 PM 81.0°F27.2°C 74.6°F23.7°C 81% 9.0 mph N14.5 kmh N 13.6 mph21.9 kmh 29.52 in999.7 mb 0.00 in0.0 mm 0.00 in/hr0.0 mm/hr 0.03 in0.8 mm
03:15 PM 81.7°F27.6°C 76.1°F24.5°C 83% 7.8 mph N12.6 kmh N 13.0 mph20.9 kmh 29.52 in999.7 mb 0.00 in0.0 mm 0.00 in/hr0.0 mm/hr 0.03 in0.8 mm
03:10 PM 81.1°F27.3°C 75.5°F24.2°C 83% 7.4 mph NW11.9 kmh NW 13.0 mph20.9 kmh 29.52 in999.7 mb 0.00 in0.0 mm 0.00 in/hr0.0 mm/hr 0.03 in0.8 mm
03:05 PM 79.9°F26.6°C 76.7°F24.8°C 90% 8.4 mph NNW13.5 kmh NNW 13.0 mph20.9 kmh 29.52 in999.7 mb 0.00 in0.0 mm 0.00 in/hr0.0 mm/hr 0.03 in0.8 mm
03:00 PM 79.9°F26.6°C 76.7°F24.8°C 90% 9.8 mph N15.8 kmh N 13.0 mph20.9 kmh 29.52 in999.7 mb 0.00 in0.0 mm 0.00 in/hr0.0 mm/hr 0.03 in0.8 mm
02:55 PM 79.5°F26.4°C 76.7°F24.8°C 91% 9.0 mph NNE14.5 kmh NNE 13.6 mph21.9 kmh 29.52 in999.7 mb 0.00 in0.0 mm 0.00 in/hr0.0 mm/hr 0.03 in0.8 mm
02:50 PM 79.2°F26.2°C 76.4°F24.7°C 91% 8.2 mph NE13.2 kmh NE 13.6 mph21.9 kmh 29.52 in999.7 mb 0.00 in0.0 mm 0.00 in/hr0.0 mm/hr 0.03 in0.8 mm
02:45 PM 78.8°F26.0°C 77.3°F25.2°C 95% 8.4 mph NE13.5 kmh NE 13.6 mph21.9 kmh 29.52 in999.7 mb 0.00 in0.0 mm 0.00 in/hr0.0 mm/hr 0.03 in0.8 mm
02:40 PM 78.3°F25.7°C 78.0°F25.6°C 99% 8.2 mph NE13.2 kmh NE 15.9 mph25.6 kmh 29.52 in999.7 mb 0.00 in0.0 mm 0.00 in/hr0.0 mm/hr 0.03 in0.8 mm
02:35 PM 77.7°F25.4°C 77.5°F25.3°C 99% 8.3 mph NE13.4 kmh NE 15.9 mph25.6 kmh 29.52 in999.7 mb 0.00 in0.0 mm 0.00 in/hr0.0 mm/hr 0.03 in0.8 mm
02:30 PM 77.7°F25.4°C 77.5°F25.3°C 99% 8.7 mph NNE14.0 kmh NNE 15.9 mph25.6 kmh 29.52 in999.7 mb 0.00 in0.0 mm 0.00 in/hr0.0 mm/hr 0.03 in0.8 mm
02:25 PM 77.4°F25.2°C 77.1°F25.1°C 99% 8.7 mph N14.0 kmh N 13.6 mph21.9 kmh 29.52 in999.7 mb 0.00 in0.0 mm 0.00 in/hr0.0 mm/hr 0.03 in0.8 mm
02:20 PM 77.4°F25.2°C 77.1°F25.1°C 99% 8.6 mph N13.8 kmh N 13.6 mph21.9 kmh 29.52 in999.7 mb 0.00 in0.0 mm 0.00 in/hr0.0 mm/hr 0.03 in0.8 mm
02:15 PM 77.2°F25.1°C 76.9°F24.9°C 99% 6.9 mph N11.1 kmh N 12.1 mph19.5 kmh 29.53 in1000.0 mb 0.00 in0.0 mm 0.00 in/hr0.0 mm/hr 0.03 in0.8 mm
02:10 PM 77.0°F25.0°C 76.8°F24.9°C 99% 4.7 mph N7.6 kmh N 12.1 mph19.5 kmh 29.52 in999.7 mb 0.00 in0.0 mm 0.00 in/hr0.0 mm/hr 0.03 in0.8 mm
02:05 PM 75.9°F24.4°C 75.7°F24.3°C 99% 4.5 mph N7.2 kmh N 8.3 mph13.4 kmh 29.53 in1000.0 mb 0.00 in0.0 mm 0.00 in/hr0.0 mm/hr 0.03 in0.8 mm
02:00 PM 75.9°F24.4°C 75.7°F24.3°C 99% 6.4 mph NNE10.3 kmh NNE 13.0 mph20.9 kmh 29.53 in1000.0 mb 0.00 in0.0 mm 0.00 in/hr0.0 mm/hr 0.03 in0.8 mm
01:55 PM 75.6°F24.2°C 75.3°F24.1°C 99% 8.2 mph NNE13.2 kmh NNE 13.0 mph20.9 kmh 29.53 in1000.0 mb 0.00 in0.0 mm 0.00 in/hr0.0 mm/hr 0.03 in0.8 mm
01:50 PM 75.4°F24.1°C 75.1°F23.9°C 99% 8.6 mph NNE13.8 kmh NNE 13.0 mph20.9 kmh 29.54 in1000.3 mb 0.00 in0.0 mm 0.00 in/hr0.0 mm/hr 0.03 in0.8 mm
01:45 PM 75.6°F24.2°C 75.3°F24.1°C 99% 8.7 mph N14.0 kmh N 13.6 mph21.9 kmh 29.54 in1000.3 mb 0.00 in0.0 mm 0.00 in/hr0.0 mm/hr 0.03 in0.8 mm
01:40 PM 75.7°F24.3°C 75.5°F24.2°C 99% 7.3 mph N11.7 kmh N 13.6 mph21.9 kmh 29.54 in1000.3 mb 0.00 in0.0 mm 0.00 in/hr0.0 mm/hr 0.03 in0.8 mm
01:35 PM 76.1°F24.5°C 75.9°F24.4°C 99% 5.6 mph NNE9.0 kmh NNE 9.2 mph14.8 kmh 29.54 in1000.3 mb 0.00 in0.0 mm 0.00 in/hr0.0 mm/hr 0.03 in0.8 mm
01:30 PM 75.9°F24.4°C 75.7°F24.3°C 99% 5.9 mph N9.5 kmh N 7.6 mph12.2 kmh 29.54 in1000.3 mb 0.00 in0.0 mm 0.00 in/hr0.0 mm/hr 0.03 in0.8 mm
01:25 PM 75.9°F24.4°C 75.7°F24.3°C 99% 5.7 mph NW9.2 kmh NW 7.6 mph12.2 kmh 29.54 in1000.3 mb 0.00 in0.0 mm 0.00 in/hr0.0 mm/hr 0.03 in0.8 mm
01:20 PM 76.1°F24.5°C 75.9°F24.4°C 99% 4.7 mph NW7.6 kmh NW 5.4 mph8.7 kmh 29.55 in1000.7 mb 0.00 in0.0 mm 0.00 in/hr0.0 mm/hr 0.03 in0.8 mm
01:15 PM 76.1°F24.5°C 75.9°F24.4°C 99% 5.0 mph N8.0 kmh N 10.7 mph17.2 kmh 29.55 in1000.7 mb 0.00 in0.0 mm 0.00 in/hr0.0 mm/hr 0.03 in0.8 mm
01:10 PM 76.1°F24.5°C 75.9°F24.4°C 99% 5.5 mph N8.9 kmh N 10.7 mph17.2 kmh 29.55 in1000.7 mb 0.00 in0.0 mm 0.00 in/hr0.0 mm/hr 0.03 in0.8 mm
01:05 PM 76.3°F24.6°C 76.0°F24.4°C 99% 4.5 mph N7.2 kmh N 7.6 mph12.2 kmh 29.55 in1000.7 mb 0.00 in0.0 mm 0.00 in/hr0.0 mm/hr 0.03 in0.8 mm
01:00 PM 76.8°F24.9°C 76.6°F24.8°C 99% 5.4 mph NNE8.7 kmh NNE 9.2 mph14.8 kmh 29.55 in1000.7 mb 0.00 in0.0 mm 0.00 in/hr0.0 mm/hr 0.03 in0.8 mm
12:55 PM 76.3°F24.6°C 76.0°F24.4°C 99% 6.8 mph N10.9 kmh N 9.8 mph15.8 kmh 29.55 in1000.7 mb 0.00 in0.0 mm 0.00 in/hr0.0 mm/hr 0.03 in0.8 mm
12:50 PM 76.3°F24.6°C 76.0°F24.4°C 99% 6.4 mph N10.3 kmh N 9.8 mph15.8 kmh 29.55 in1000.7 mb 0.00 in0.0 mm 0.00 in/hr0.0 mm/hr 0.03 in0.8 mm
12:45 PM 76.1°F24.5°C 75.9°F24.4°C 99% 5.5 mph NNE8.9 kmh NNE 9.8 mph15.8 kmh 29.55 in1000.7 mb 0.00 in0.0 mm 0.00 in/hr0.0 mm/hr 0.03 in0.8 mm
12:40 PM 76.1°F24.5°C 75.9°F24.4°C 99% 4.8 mph NNE7.7 kmh NNE 7.6 mph12.2 kmh 29.55 in1000.7 mb 0.00 in0.0 mm 0.00 in/hr0.0 mm/hr 0.03 in0.8 mm
12:35 PM 76.1°F24.5°C 75.9°F24.4°C 99% 5.3 mph N8.5 kmh N 7.6 mph12.2 kmh 29.55 in1000.7 mb 0.00 in0.0 mm 0.00 in/hr0.0 mm/hr 0.03 in0.8 mm
12:30 PM 75.9°F24.4°C 75.7°F24.3°C 99% 6.1 mph N9.8 kmh N 8.3 mph13.4 kmh 29.55 in1000.7 mb 0.00 in0.0 mm 0.00 in/hr0.0 mm/hr 0.03 in0.8 mm
12:25 PM 75.7°F24.3°C 75.5°F24.2°C 99% 7.0 mph NNE11.3 kmh NNE 8.3 mph13.4 kmh 29.55 in1000.7 mb 0.00 in0.0 mm 0.00 in/hr0.0 mm/hr 0.03 in0.8 mm
12:20 PM 75.7°F24.3°C 75.5°F24.2°C 99% 6.5 mph NNE10.5 kmh NNE 8.3 mph13.4 kmh 29.55 in1000.7 mb 0.00 in0.0 mm 0.00 in/hr0.0 mm/hr 0.03 in0.8 mm
12:15 PM 76.1°F24.5°C 75.9°F24.4°C 99% 6.5 mph N10.5 kmh N 8.3 mph13.4 kmh 29.55 in1000.7 mb 0.00 in0.0 mm 0.00 in/hr0.0 mm/hr 0.03 in0.8 mm
12:10 PM 75.7°F24.3°C 75.5°F24.2°C 99% 5.7 mph N9.2 kmh N 8.3 mph13.4 kmh 29.55 in1000.7 mb 0.00 in0.0 mm 0.00 in/hr0.0 mm/hr 0.03 in0.8 mm
12:05 PM 75.4°F24.1°C 75.1°F23.9°C 99% 4.3 mph N6.9 kmh N 7.6 mph12.2 kmh 29.56 in1001.0 mb 0.01 in0.3 mm 0.00 in/hr0.0 mm/hr 0.03 in0.8 mm
12:00 PM 75.4°F24.1°C 75.1°F23.9°C 99% 5.6 mph N9.0 kmh N 10.7 mph17.2 kmh 29.55 in1000.7 mb 0.01 in0.3 mm 0.00 in/hr0.0 mm/hr 0.03 in0.8 mm
11:55 AM 75.2°F24.0°C 75.0°F23.9°C 99% 6.3 mph N10.1 kmh N 10.7 mph17.2 kmh 29.55 in1000.7 mb 0.01 in0.3 mm 0.00 in/hr0.0 mm/hr 0.03 in0.8 mm
11:50 AM 74.8°F23.8°C 74.6°F23.7°C 99% 7.1 mph N11.4 kmh N 11.4 mph18.3 kmh 29.55 in1000.7 mb 0.01 in0.3 mm 0.00 in/hr0.0 mm/hr 0.03 in0.8 mm
11:45 AM 74.8°F23.8°C 74.6°F23.7°C 99% 7.6 mph N12.2 kmh N 11.4 mph18.3 kmh 29.55 in1000.7 mb 0.01 in0.3 mm 0.00 in/hr0.0 mm/hr 0.03 in0.8 mm
11:40 AM 74.8°F23.8°C 74.6°F23.7°C 99% 6.2 mph N10.0 kmh N 9.2 mph14.8 kmh 29.55 in1000.7 mb 0.01 in0.3 mm 0.00 in/hr0.0 mm/hr 0.03 in0.8 mm
11:35 AM 74.8°F23.8°C 74.6°F23.7°C 99% 5.3 mph N8.5 kmh N 7.6 mph12.2 kmh 29.55 in1000.7 mb 0.01 in0.3 mm 0.00 in/hr0.0 mm/hr 0.03 in0.8 mm
11:30 AM 74.7°F23.7°C 74.4°F23.6°C 99% 5.7 mph N9.2 kmh N 8.3 mph13.4 kmh 29.55 in1000.7 mb 0.01 in0.3 mm 0.00 in/hr0.0 mm/hr 0.03 in0.8 mm
11:25 AM 74.5°F23.6°C 74.2°F23.4°C 99% 5.8 mph N9.3 kmh N 10.7 mph17.2 kmh 29.55 in1000.7 mb 0.01 in0.3 mm 0.00 in/hr0.0 mm/hr 0.03 in0.8 mm
11:20 AM 74.1°F23.4°C 73.9°F23.3°C 99% 6.5 mph N10.5 kmh N 10.7 mph17.2 kmh 29.55 in1000.7 mb 0.01 in0.3 mm 0.00 in/hr0.0 mm/hr 0.03 in0.8 mm
11:15 AM 73.9°F23.3°C 73.7°F23.2°C 99% 6.7 mph N10.8 kmh N 9.8 mph15.8 kmh 29.55 in1000.7 mb 0.01 in0.3 mm 0.00 in/hr0.0 mm/hr 0.03 in0.8 mm
11:10 AM 73.8°F23.2°C 73.5°F23.1°C 99% 6.0 mph N9.7 kmh N 6.0 mph9.7 kmh 29.55 in1000.7 mb 0.01 in0.3 mm 0.12 in/hr3.0 mm/hr 0.03 in0.8 mm
11:05 AM 73.8°F23.2°C 73.5°F23.1°C 99% 6.6 mph N10.6 kmh N 8.3 mph13.4 kmh 29.55 in1000.7 mb 0.00 in0.0 mm 0.00 in/hr0.0 mm/hr 0.02 in0.5 mm
11:00 AM 73.8°F23.2°C 73.5°F23.1°C 99% 6.5 mph NNW10.5 kmh NNW 8.3 mph13.4 kmh 29.55 in1000.7 mb 0.00 in0.0 mm 0.00 in/hr0.0 mm/hr 0.02 in0.5 mm
10:55 AM 73.9°F23.3°C 73.7°F23.2°C 99% 5.5 mph NNW8.9 kmh NNW 12.1 mph19.5 kmh 29.55 in1000.7 mb 0.00 in0.0 mm 0.00 in/hr0.0 mm/hr 0.02 in0.5 mm
10:50 AM 73.8°F23.2°C 73.5°F23.1°C 99% 6.0 mph N9.7 kmh N 12.1 mph19.5 kmh 29.54 in1000.3 mb 0.00 in0.0 mm 0.00 in/hr0.0 mm/hr 0.02 in0.5 mm
10:45 AM 73.4°F23.0°C 73.2°F22.9°C 99% 7.0 mph NNE11.3 kmh NNE 12.1 mph19.5 kmh 29.54 in1000.3 mb 0.00 in0.0 mm 0.00 in/hr0.0 mm/hr 0.02 in0.5 mm
10:40 AM 73.6°F23.1°C 73.3°F22.9°C 99% 6.6 mph NNE10.6 kmh NNE 8.3 mph13.4 kmh 29.54 in1000.3 mb 0.00 in0.0 mm 0.00 in/hr0.0 mm/hr 0.02 in0.5 mm
10:35 AM 73.6°F23.1°C 73.3°F22.9°C 99% 5.9 mph N9.5 kmh N 9.8 mph15.8 kmh 29.54 in1000.3 mb 0.00 in0.0 mm 0.00 in/hr0.0 mm/hr 0.02 in0.5 mm
10:30 AM 73.4°F23.0°C 73.2°F22.9°C 99% 5.6 mph N9.0 kmh N 9.8 mph15.8 kmh 29.54 in1000.3 mb 0.00 in0.0 mm 0.00 in/hr0.0 mm/hr 0.02 in0.5 mm
10:25 AM 73.4°F23.0°C 73.2°F22.9°C 99% 5.9 mph N9.5 kmh N 10.7 mph17.2 kmh 29.54 in1000.3 mb 0.00 in0.0 mm 0.00 in/hr0.0 mm/hr 0.02 in0.5 mm
10:20 AM 73.2°F22.9°C 73.0°F22.8°C 99% 5.4 mph N8.7 kmh N 10.7 mph17.2 kmh 29.54 in1000.3 mb 0.00 in0.0 mm 0.00 in/hr0.0 mm/hr 0.02 in0.5 mm
10:15 AM 73.2°F22.9°C 73.0°F22.8°C 99% 4.3 mph N6.9 kmh N 6.0 mph9.7 kmh 29.54 in1000.3 mb 0.00 in0.0 mm 0.00 in/hr0.0 mm/hr 0.02 in0.5 mm
10:10 AM 73.0°F22.8°C 72.8°F22.7°C 99% 4.1 mph N6.6 kmh N 6.0 mph9.7 kmh 29.54 in1000.3 mb 0.00 in0.0 mm 0.00 in/hr0.0 mm/hr 0.02 in0.5 mm
10:05 AM 72.9°F22.7°C 72.6°F22.6°C 99% 4.0 mph N6.4 kmh N 6.0 mph9.7 kmh 29.54 in1000.3 mb 0.00 in0.0 mm 0.00 in/hr0.0 mm/hr 0.02 in0.5 mm
10:00 AM 72.9°F22.7°C 72.6°F22.6°C 99% 4.8 mph N7.7 kmh N 7.6 mph12.2 kmh 29.54 in1000.3 mb 0.00 in0.0 mm 0.00 in/hr0.0 mm/hr 0.02 in0.5 mm
09:55 AM 72.9°F22.7°C 72.6°F22.6°C 99% 5.8 mph N9.3 kmh N 7.6 mph12.2 kmh 29.53 in1000.0 mb 0.00 in0.0 mm 0.00 in/hr0.0 mm/hr 0.02 in0.5 mm
09:50 AM 72.9°F22.7°C 72.6°F22.6°C 99% 5.5 mph NNW8.9 kmh NNW 7.6 mph12.2 kmh 29.54 in1000.3 mb 0.00 in0.0 mm 0.00 in/hr0.0 mm/hr 0.02 in0.5 mm
09:45 AM 72.9°F22.7°C 72.6°F22.6°C 99% 4.9 mph NNW7.9 kmh NNW 9.2 mph14.8 kmh 29.53 in1000.0 mb 0.00 in0.0 mm 0.00 in/hr0.0 mm/hr 0.02 in0.5 mm
09:40 AM 73.2°F22.9°C 73.0°F22.8°C 99% 4.2 mph NNE6.8 kmh NNE 9.2 mph14.8 kmh 29.54 in1000.3 mb 0.00 in0.0 mm 0.00 in/hr0.0 mm/hr 0.02 in0.5 mm
09:35 AM 73.2°F22.9°C 73.0°F22.8°C 99% 3.5 mph N5.6 kmh N 6.0 mph9.7 kmh 29.54 in1000.3 mb 0.00 in0.0 mm 0.00 in/hr0.0 mm/hr 0.02 in0.5 mm
09:30 AM 73.4°F23.0°C 73.2°F22.9°C 99% 4.6 mph NW7.4 kmh NW 8.3 mph13.4 kmh 29.53 in1000.0 mb 0.00 in0.0 mm 0.00 in/hr0.0 mm/hr 0.02 in0.5 mm
09:25 AM 73.4°F23.0°C 73.2°F22.9°C 99% 5.0 mph NW8.0 kmh NW 8.3 mph13.4 kmh 29.54 in1000.3 mb 0.00 in0.0 mm 0.00 in/hr0.0 mm/hr 0.02 in0.5 mm
09:20 AM 73.8°F23.2°C 73.5°F23.1°C 99% 3.6 mph NW5.8 kmh NW 6.0 mph9.7 kmh 29.54 in1000.3 mb 0.00 in0.0 mm 0.00 in/hr0.0 mm/hr 0.02 in0.5 mm
09:15 AM 73.9°F23.3°C 73.7°F23.2°C 99% 3.2 mph N5.1 kmh N 5.4 mph8.7 kmh 29.53 in1000.0 mb 0.00 in0.0 mm 0.00 in/hr0.0 mm/hr 0.02 in0.5 mm
09:10 AM 74.1°F23.4°C 73.9°F23.3°C 99% 3.5 mph N5.6 kmh N 3.8 mph6.1 kmh 29.53 in1000.0 mb 0.00 in0.0 mm 0.00 in/hr0.0 mm/hr 0.02 in0.5 mm
09:05 AM 74.7°F23.7°C 74.4°F23.6°C 99% 5.0 mph N8.0 kmh N 7.6 mph12.2 kmh 29.53 in1000.0 mb 0.00 in0.0 mm 0.00 in/hr0.0 mm/hr 0.02 in0.5 mm
09:00 AM 74.7°F23.7°C 74.4°F23.6°C 99% 6.6 mph NNE10.6 kmh NNE 9.2 mph14.8 kmh 29.53 in1000.0 mb 0.00 in0.0 mm 0.00 in/hr0.0 mm/hr 0.02 in0.5 mm
08:55 AM 74.8°F23.8°C 74.6°F23.7°C 99% 6.9 mph NNE11.1 kmh NNE 9.2 mph14.8 kmh 29.53 in1000.0 mb 0.00 in0.0 mm 0.00 in/hr0.0 mm/hr 0.02 in0.5 mm
08:50 AM 74.8°F23.8°C 74.6°F23.7°C 99% 6.4 mph N10.3 kmh N 9.2 mph14.8 kmh 29.53 in1000.0 mb 0.00 in0.0 mm 0.00 in/hr0.0 mm/hr 0.02 in0.5 mm
08:45 AM 74.8°F23.8°C 74.6°F23.7°C 99% 7.0 mph N11.3 kmh N 10.7 mph17.2 kmh 29.53 in1000.0 mb 0.00 in0.0 mm 0.00 in/hr0.0 mm/hr 0.02 in0.5 mm
08:40 AM 74.7°F23.7°C 74.4°F23.6°C 99% 7.0 mph N11.3 kmh N 10.7 mph17.2 kmh 29.52 in999.7 mb 0.00 in0.0 mm 0.00 in/hr0.0 mm/hr 0.02 in0.5 mm
08:35 AM 74.7°F23.7°C 74.4°F23.6°C 99% 5.5 mph NNW8.9 kmh NNW 9.8 mph15.8 kmh 29.52 in999.7 mb 0.00 in0.0 mm 0.00 in/hr0.0 mm/hr 0.02 in0.5 mm
08:30 AM 74.3°F23.5°C 74.1°F23.4°C 99% 5.5 mph N8.9 kmh N 8.3 mph13.4 kmh 29.52 in999.7 mb 0.00 in0.0 mm 0.00 in/hr0.0 mm/hr 0.02 in0.5 mm
08:25 AM 74.1°F23.4°C 73.9°F23.3°C 99% 4.7 mph NNE7.6 kmh NNE 8.3 mph13.4 kmh 29.53 in1000.0 mb 0.00 in0.0 mm 0.00 in/hr0.0 mm/hr 0.02 in0.5 mm
08:20 AM 74.1°F23.4°C 73.9°F23.3°C 99% 4.3 mph N6.9 kmh N 7.6 mph12.2 kmh 29.53 in1000.0 mb 0.00 in0.0 mm 0.00 in/hr0.0 mm/hr 0.02 in0.5 mm
08:15 AM 73.6°F23.1°C 73.3°F22.9°C 99% 4.5 mph N7.2 kmh N 7.6 mph12.2 kmh 29.52 in999.7 mb 0.00 in0.0 mm 0.00 in/hr0.0 mm/hr 0.02 in0.5 mm
08:10 AM 73.4°F23.0°C 73.2°F22.9°C 99% 3.7 mph NE6.0 kmh NE 5.4 mph8.7 kmh 29.52 in999.7 mb 0.00 in0.0 mm 0.00 in/hr0.0 mm/hr 0.02 in0.5 mm
08:05 AM 72.9°F22.7°C 72.6°F22.6°C 99% 3.7 mph N6.0 kmh N 6.0 mph9.7 kmh 29.52 in999.7 mb 0.00 in0.0 mm 0.00 in/hr0.0 mm/hr 0.02 in0.5 mm
08:00 AM 72.9°F22.7°C 72.6°F22.6°C 99% 4.6 mph N7.4 kmh N 6.9 mph11.1 kmh 29.52 in999.7 mb 0.00 in0.0 mm 0.00 in/hr0.0 mm/hr 0.02 in0.5 mm
07:55 AM 72.9°F22.7°C 72.6°F22.6°C 99% 4.6 mph N7.4 kmh N 6.9 mph11.1 kmh 29.52 in999.7 mb 0.00 in0.0 mm 0.00 in/hr0.0 mm/hr 0.02 in0.5 mm
07:50 AM 72.9°F22.7°C 72.6°F22.6°C 99% 4.5 mph N7.2 kmh N 8.3 mph13.4 kmh 29.52 in999.7 mb 0.00 in0.0 mm 0.00 in/hr0.0 mm/hr 0.02 in0.5 mm
07:45 AM 72.9°F22.7°C 72.6°F22.6°C 99% 4.5 mph N7.2 kmh N 8.3 mph13.4 kmh 29.51 in999.3 mb 0.00 in0.0 mm 0.00 in/hr0.0 mm/hr 0.02 in0.5 mm
07:40 AM 72.9°F22.7°C 72.6°F22.6°C 99% 4.2 mph N6.8 kmh N 6.0 mph9.7 kmh 29.52 in999.7 mb 0.00 in0.0 mm 0.00 in/hr0.0 mm/hr 0.02 in0.5 mm
07:35 AM 72.9°F22.7°C 72.6°F22.6°C 99% 4.2 mph NNW6.8 kmh NNW 6.0 mph9.7 kmh 29.51 in999.3 mb 0.00 in0.0 mm 0.00 in/hr0.0 mm/hr 0.02 in0.5 mm
07:30 AM 72.9°F22.7°C 72.6°F22.6°C 99% 4.8 mph N7.7 kmh N 6.9 mph11.1 kmh 29.51 in999.3 mb 0.00 in0.0 mm 0.00 in/hr0.0 mm/hr 0.02 in0.5 mm
07:25 AM 73.0°F22.8°C 72.8°F22.7°C 99% 4.9 mph N7.9 kmh N 6.9 mph11.1 kmh 29.51 in999.3 mb 0.00 in0.0 mm 0.00 in/hr0.0 mm/hr 0.02 in0.5 mm
07:20 AM 73.0°F22.8°C 72.8°F22.7°C 99% 4.2 mph N6.8 kmh N 6.0 mph9.7 kmh 29.51 in999.3 mb 0.00 in0.0 mm 0.00 in/hr0.0 mm/hr 0.02 in0.5 mm
07:15 AM 73.0°F22.8°C 72.8°F22.7°C 99% 3.8 mph N6.1 kmh N 6.0 mph9.7 kmh 29.51 in999.3 mb 0.00 in0.0 mm 0.00 in/hr0.0 mm/hr 0.02 in0.5 mm
07:10 AM 73.0°F22.8°C 72.8°F22.7°C 99% 3.4 mph NNE5.5 kmh NNE 5.4 mph8.7 kmh 29.51 in999.3 mb 0.00 in0.0 mm 0.00 in/hr0.0 mm/hr 0.02 in0.5 mm
07:05 AM 73.0°F22.8°C 72.8°F22.7°C 99% 3.3 mph N5.3 kmh N 5.4 mph8.7 kmh 29.51 in999.3 mb 0.00 in0.0 mm 0.00 in/hr0.0 mm/hr 0.02 in0.5 mm
07:00 AM 73.0°F22.8°C 72.8°F22.7°C 99% 3.5 mph N5.6 kmh N 5.4 mph8.7 kmh 29.50 in999.0 mb 0.00 in0.0 mm 0.00 in/hr0.0 mm/hr 0.02 in0.5 mm
06:55 AM 73.2°F22.9°C 73.0°F22.8°C 99% 3.3 mph N5.3 kmh N 5.4 mph8.7 kmh 29.50 in999.0 mb 0.00 in0.0 mm 0.00 in/hr0.0 mm/hr 0.02 in0.5 mm
06:50 AM 73.2°F22.9°C 73.0°F22.8°C 99% 2.8 mph N4.5 kmh N 5.4 mph8.7 kmh 29.50 in999.0 mb 0.00 in0.0 mm 0.00 in/hr0.0 mm/hr 0.02 in0.5 mm
06:45 AM 73.2°F22.9°C 73.0°F22.8°C 99% 2.9 mph N4.7 kmh N 5.4 mph8.7 kmh 29.50 in999.0 mb 0.00 in0.0 mm 0.00 in/hr0.0 mm/hr 0.02 in0.5 mm
06:40 AM 73.2°F22.9°C 73.0°F22.8°C 99% 3.2 mph NNE5.1 kmh NNE 5.4 mph8.7 kmh 29.50 in999.0 mb 0.00 in0.0 mm 0.00 in/hr0.0 mm/hr 0.02 in0.5 mm
06:35 AM 73.4°F23.0°C 73.2°F22.9°C 99% 3.1 mph NE5.0 kmh NE 5.4 mph8.7 kmh 29.49 in998.6 mb 0.00 in0.0 mm 0.00 in/hr0.0 mm/hr 0.02 in0.5 mm
06:30 AM 73.4°F23.0°C 73.2°F22.9°C 99% 3.2 mph NNE5.1 kmh NNE 5.4 mph8.7 kmh 29.50 in999.0 mb 0.00 in0.0 mm 0.00 in/hr0.0 mm/hr 0.02 in0.5 mm
06:25 AM 73.4°F23.0°C 73.2°F22.9°C 99% 3.2 mph NNE5.1 kmh NNE 4.5 mph7.2 kmh 29.49 in998.6 mb 0.00 in0.0 mm 0.00 in/hr0.0 mm/hr 0.02 in0.5 mm
06:20 AM 73.6°F23.1°C 73.3°F22.9°C 99% 3.2 mph NE5.1 kmh NE 3.8 mph6.1 kmh 29.49 in998.6 mb 0.00 in0.0 mm 0.00 in/hr0.0 mm/hr 0.02 in0.5 mm
06:15 AM 73.6°F23.1°C 73.3°F22.9°C 99% 3.1 mph NNE5.0 kmh NNE 3.8 mph6.1 kmh 29.49 in998.6 mb 0.00 in0.0 mm 0.00 in/hr0.0 mm/hr 0.02 in0.5 mm
06:10 AM 73.4°F23.0°C 73.2°F22.9°C 99% 3.0 mph NNW4.8 kmh NNW 3.8 mph6.1 kmh 29.49 in998.6 mb 0.00 in0.0 mm 0.00 in/hr0.0 mm/hr 0.02 in0.5 mm
06:05 AM 73.6°F23.1°C 73.3°F22.9°C 99% 2.4 mph NW3.9 kmh NW 3.1 mph5.0 kmh 29.49 in998.6 mb 0.00 in0.0 mm 0.00 in/hr0.0 mm/hr 0.02 in0.5 mm
06:00 AM 73.6°F23.1°C 73.3°F22.9°C 99% 1.8 mph NNW2.9 kmh NNW 3.1 mph5.0 kmh 29.49 in998.6 mb 0.00 in0.0 mm 0.00 in/hr0.0 mm/hr 0.02 in0.5 mm
05:55 AM 73.6°F23.1°C 73.3°F22.9°C 99% 2.5 mph NNW4.0 kmh NNW 4.5 mph7.2 kmh 29.49 in998.6 mb 0.00 in0.0 mm 0.00 in/hr0.0 mm/hr 0.02 in0.5 mm
05:50 AM 73.6°F23.1°C 73.3°F22.9°C 99% 2.7 mph NW4.3 kmh NW 4.5 mph7.2 kmh 29.48 in998.3 mb 0.00 in0.0 mm 0.00 in/hr0.0 mm/hr 0.02 in0.5 mm
05:45 AM 73.8°F23.2°C 73.5°F23.1°C 99% 2.0 mph NNW3.2 kmh NNW 4.5 mph7.2 kmh 29.49 in998.6 mb 0.00 in0.0 mm 0.00 in/hr0.0 mm/hr 0.02 in0.5 mm
05:40 AM 73.6°F23.1°C 73.3°F22.9°C 99% 2.3 mph N3.7 kmh N 3.8 mph6.1 kmh 29.48 in998.3 mb 0.00 in0.0 mm 0.00 in/hr0.0 mm/hr 0.02 in0.5 mm
05:35 AM 73.6°F23.1°C 73.3°F22.9°C 99% 2.9 mph NNW4.7 kmh NNW 4.5 mph7.2 kmh 29.48 in998.3 mb 0.00 in0.0 mm 0.00 in/hr0.0 mm/hr 0.02 in0.5 mm
05:30 AM 73.6°F23.1°C 73.3°F22.9°C 99% 3.0 mph NW4.8 kmh NW 4.5 mph7.2 kmh 29.48 in998.3 mb 0.00 in0.0 mm 0.00 in/hr0.0 mm/hr 0.02 in0.5 mm
05:25 AM 73.6°F23.1°C 73.3°F22.9°C 99% 2.9 mph NW4.7 kmh NW 4.5 mph7.2 kmh 29.48 in998.3 mb 0.00 in0.0 mm 0.00 in/hr0.0 mm/hr 0.02 in0.5 mm
05:20 AM 73.6°F23.1°C 73.3°F22.9°C 99% 2.8 mph NNW4.5 kmh NNW 3.8 mph6.1 kmh 29.48 in998.3 mb 0.00 in0.0 mm 0.00 in/hr0.0 mm/hr 0.02 in0.5 mm
05:15 AM 73.8°F23.2°C 73.5°F23.1°C 99% 3.1 mph N5.0 kmh N 3.8 mph6.1 kmh 29.48 in998.3 mb 0.00 in0.0 mm 0.00 in/hr0.0 mm/hr 0.02 in0.5 mm
05:10 AM 73.8°F23.2°C 73.5°F23.1°C 99% 3.3 mph N5.3 kmh N 3.8 mph6.1 kmh 29.48 in998.3 mb 0.00 in0.0 mm 0.00 in/hr0.0 mm/hr 0.02 in0.5 mm
05:05 AM 73.8°F23.2°C 73.5°F23.1°C 99% 2.5 mph N4.0 kmh N 3.1 mph5.0 kmh 29.48 in998.3 mb 0.00 in0.0 mm 0.00 in/hr0.0 mm/hr 0.02 in0.5 mm
05:00 AM 73.8°F23.2°C 73.5°F23.1°C 99% 2.2 mph NW3.5 kmh NW 4.5 mph7.2 kmh 29.48 in998.3 mb 0.00 in0.0 mm 0.00 in/hr0.0 mm/hr 0.02 in0.5 mm
04:55 AM 73.8°F23.2°C 73.5°F23.1°C 99% 2.8 mph N4.5 kmh N 4.5 mph7.2 kmh 29.48 in998.3 mb 0.00 in0.0 mm 0.00 in/hr0.0 mm/hr 0.02 in0.5 mm
04:50 AM 73.8°F23.2°C 73.5°F23.1°C 99% 2.5 mph NNW4.0 kmh NNW 4.5 mph7.2 kmh 29.48 in998.3 mb 0.00 in0.0 mm 0.00 in/hr0.0 mm/hr 0.02 in0.5 mm
04:45 AM 73.8°F23.2°C 73.5°F23.1°C 99% 1.8 mph NW2.9 kmh NW 3.1 mph5.0 kmh 29.48 in998.3 mb 0.00 in0.0 mm 0.00 in/hr0.0 mm/hr 0.02 in0.5 mm
04:40 AM 73.8°F23.2°C 73.5°F23.1°C 99% 1.5 mph NW2.4 kmh NW 2.2 mph3.5 kmh 29.48 in998.3 mb 0.00 in0.0 mm 0.00 in/hr0.0 mm/hr 0.02 in0.5 mm
04:35 AM 73.8°F23.2°C 73.5°F23.1°C 99% 1.3 mph NW2.1 kmh NW 2.2 mph3.5 kmh 29.48 in998.3 mb 0.00 in0.0 mm 0.00 in/hr0.0 mm/hr 0.02 in0.5 mm
04:30 AM 73.8°F23.2°C 73.5°F23.1°C 99% 0.9 mph NW1.4 kmh NW 2.2 mph3.5 kmh 29.48 in998.3 mb 0.01 in0.3 mm 0.00 in/hr0.0 mm/hr 0.02 in0.5 mm
04:25 AM 73.8°F23.2°C 73.5°F23.1°C 99% 0.9 mph NW1.4 kmh NW 1.6 mph2.6 kmh 29.47 in998.0 mb 0.01 in0.3 mm 0.00 in/hr0.0 mm/hr 0.02 in0.5 mm
04:20 AM 73.9°F23.3°C 73.7°F23.2°C 99% 0.8 mph NW1.3 kmh NW 1.6 mph2.6 kmh 29.47 in998.0 mb 0.01 in0.3 mm 0.00 in/hr0.0 mm/hr 0.02 in0.5 mm
04:15 AM 73.9°F23.3°C 73.7°F23.2°C 99% 0.6 mph NW1.0 kmh NW 1.6 mph2.6 kmh 29.48 in998.3 mb 0.01 in0.3 mm 0.00 in/hr0.0 mm/hr 0.02 in0.5 mm
04:10 AM 73.9°F23.3°C 73.7°F23.2°C 99% 0.3 mph NW0.5 kmh NW 1.6 mph2.6 kmh 29.47 in998.0 mb 0.01 in0.3 mm 0.00 in/hr0.0 mm/hr 0.02 in0.5 mm
04:05 AM 73.8°F23.2°C 73.5°F23.1°C 99% 0.6 mph NW1.0 kmh NW 1.6 mph2.6 kmh 29.47 in998.0 mb 0.01 in0.3 mm 0.00 in/hr0.0 mm/hr 0.02 in0.5 mm
04:00 AM 73.8°F23.2°C 73.5°F23.1°C 99% 1.2 mph NW1.9 kmh NW 1.6 mph2.6 kmh 29.47 in998.0 mb 0.01 in0.3 mm 0.00 in/hr0.0 mm/hr 0.02 in0.5 mm
03:55 AM 73.8°F23.2°C 73.5°F23.1°C 99% 1.1 mph NW1.8 kmh NW 1.6 mph2.6 kmh 29.48 in998.3 mb 0.01 in0.3 mm 0.00 in/hr0.0 mm/hr 0.02 in0.5 mm
03:50 AM 73.9°F23.3°C 73.7°F23.2°C 99% 1.2 mph NNW1.9 kmh NNW 3.1 mph5.0 kmh 29.48 in998.3 mb 0.01 in0.3 mm 0.00 in/hr0.0 mm/hr 0.02 in0.5 mm
03:45 AM 73.9°F23.3°C 73.7°F23.2°C 99% 0.9 mph N1.4 kmh N 3.1 mph5.0 kmh 29.48 in998.3 mb 0.01 in0.3 mm 0.00 in/hr0.0 mm/hr 0.02 in0.5 mm
03:40 AM 74.1°F23.4°C 73.9°F23.3°C 99% 0.6 mph NW1.0 kmh NW 3.1 mph5.0 kmh 29.48 in998.3 mb 0.01 in0.3 mm 0.00 in/hr0.0 mm/hr 0.02 in0.5 mm
03:35 AM 74.1°F23.4°C 73.9°F23.3°C 99% 0.8 mph NW1.3 kmh NW 1.6 mph2.6 kmh 29.48 in998.3 mb 0.01 in0.3 mm 0.12 in/hr3.0 mm/hr 0.02 in0.5 mm
03:30 AM 74.1°F23.4°C 73.9°F23.3°C 99% 0.8 mph WNW1.3 kmh WNW 1.6 mph2.6 kmh 29.48 in998.3 mb 0.00 in0.0 mm 0.00 in/hr0.0 mm/hr 0.00 in0.0 mm
03:25 AM 74.1°F23.4°C 73.9°F23.3°C 99% 0.4 mph W0.6 kmh W 1.6 mph2.6 kmh 29.48 in998.3 mb 0.00 in0.0 mm 0.00 in/hr0.0 mm/hr 0.00 in0.0 mm
03:20 AM 73.9°F23.3°C 73.7°F23.2°C 99% 0.1 mph W0.2 kmh W 0.7 mph1.1 kmh 29.49 in998.6 mb 0.00 in0.0 mm 0.00 in/hr0.0 mm/hr 0.00 in0.0 mm
03:15 AM 73.9°F23.3°C 73.7°F23.2°C 99% 0.3 mph SW0.5 kmh SW 0.7 mph1.1 kmh 29.49 in998.6 mb 0.00 in0.0 mm 0.00 in/hr0.0 mm/hr 0.00 in0.0 mm
03:10 AM 74.1°F23.4°C 73.9°F23.3°C 99% 0.6 mph SW1.0 kmh SW 0.7 mph1.1 kmh 29.49 in998.6 mb 0.00 in0.0 mm 0.00 in/hr0.0 mm/hr 0.00 in0.0 mm
03:05 AM 73.9°F23.3°C 73.7°F23.2°C 99% 0.8 mph SW1.3 kmh SW 1.6 mph2.6 kmh 29.48 in998.3 mb 0.00 in0.0 mm 0.00 in/hr0.0 mm/hr 0.00 in0.0 mm
03:00 AM 73.9°F23.3°C 73.7°F23.2°C 99% 0.7 mph SW1.1 kmh SW 1.6 mph2.6 kmh 29.48 in998.3 mb 0.00 in0.0 mm 0.00 in/hr0.0 mm/hr 0.00 in0.0 mm
02:55 AM 73.9°F23.3°C 73.7°F23.2°C 99% 0.5 mph SSW0.8 kmh SSW 1.6 mph2.6 kmh 29.48 in998.3 mb 0.00 in0.0 mm 0.00 in/hr0.0 mm/hr 0.00 in0.0 mm
02:50 AM 74.1°F23.4°C 73.9°F23.3°C 99% 0.5 mph SW0.8 kmh SW 1.6 mph2.6 kmh 29.48 in998.3 mb 0.00 in0.0 mm 0.00 in/hr0.0 mm/hr 0.00 in0.0 mm
02:45 AM 74.1°F23.4°C 73.9°F23.3°C 99% 0.6 mph WNW1.0 kmh WNW 1.6 mph2.6 kmh 29.48 in998.3 mb 0.00 in0.0 mm 0.00 in/hr0.0 mm/hr 0.00 in0.0 mm
02:40 AM 74.1°F23.4°C 73.9°F23.3°C 99% 0.6 mph NW1.0 kmh NW 1.6 mph2.6 kmh 29.49 in998.6 mb 0.00 in0.0 mm 0.00 in/hr0.0 mm/hr 0.00 in0.0 mm
02:35 AM 74.1°F23.4°C 73.9°F23.3°C 99% 0.6 mph NNW1.0 kmh NNW 1.6 mph2.6 kmh 29.49 in998.6 mb 0.00 in0.0 mm 0.00 in/hr0.0 mm/hr 0.00 in0.0 mm
02:30 AM 74.1°F23.4°C 73.9°F23.3°C 99% 0.9 mph N1.4 kmh N 1.6 mph2.6 kmh 29.49 in998.6 mb 0.00 in0.0 mm 0.00 in/hr0.0 mm/hr 0.00 in0.0 mm
02:25 AM 74.1°F23.4°C 73.9°F23.3°C 99% 1.3 mph NW2.1 kmh NW 2.2 mph3.5 kmh 29.49 in998.6 mb 0.00 in0.0 mm 0.00 in/hr0.0 mm/hr 0.00 in0.0 mm
02:20 AM 74.3°F23.5°C 74.1°F23.4°C 99% 2.1 mph W3.4 kmh W 4.5 mph7.2 kmh 29.49 in998.6 mb 0.00 in0.0 mm 0.00 in/hr0.0 mm/hr 0.00 in0.0 mm
02:15 AM 74.3°F23.5°C 74.1°F23.4°C 99% 2.4 mph WSW3.9 kmh WSW 4.5 mph7.2 kmh 29.49 in998.6 mb 0.00 in0.0 mm 0.00 in/hr0.0 mm/hr 0.00 in0.0 mm
02:10 AM 74.5°F23.6°C 74.2°F23.4°C 99% 1.8 mph SW2.9 kmh SW 3.1 mph5.0 kmh 29.49 in998.6 mb 0.00 in0.0 mm 0.00 in/hr0.0 mm/hr 0.00 in0.0 mm
02:05 AM 74.5°F23.6°C 74.2°F23.4°C 99% 1.2 mph SW1.9 kmh SW 1.6 mph2.6 kmh 29.50 in999.0 mb 0.00 in0.0 mm 0.00 in/hr0.0 mm/hr 0.00 in0.0 mm
02:00 AM 74.5°F23.6°C 74.2°F23.4°C 99% 0.5 mph SW0.8 kmh SW 1.6 mph2.6 kmh 29.50 in999.0 mb 0.00 in0.0 mm 0.00 in/hr0.0 mm/hr 0.00 in0.0 mm
01:55 AM 74.5°F23.6°C 74.2°F23.4°C 99% 0.2 mph NE0.3 kmh NE 0.7 mph1.1 kmh 29.50 in999.0 mb 0.00 in0.0 mm 0.00 in/hr0.0 mm/hr 0.00 in0.0 mm
01:50 AM 74.5°F23.6°C 74.2°F23.4°C 99% 0.3 mph NW0.5 kmh NW 0.7 mph1.1 kmh 29.50 in999.0 mb 0.00 in0.0 mm 0.00 in/hr0.0 mm/hr 0.00 in0.0 mm
01:45 AM 74.3°F23.5°C 74.1°F23.4°C 99% 0.7 mph WSW1.1 kmh WSW 1.6 mph2.6 kmh 29.50 in999.0 mb 0.00 in0.0 mm 0.00 in/hr0.0 mm/hr 0.00 in0.0 mm
01:40 AM 74.5°F23.6°C 74.2°F23.4°C 99% 1.2 mph SW1.9 kmh SW 2.2 mph3.5 kmh 29.50 in999.0 mb 0.00 in0.0 mm 0.00 in/hr0.0 mm/hr 0.00 in0.0 mm
01:35 AM 74.5°F23.6°C 74.2°F23.4°C 99% 1.0 mph WSW1.6 kmh WSW 2.2 mph3.5 kmh 29.50 in999.0 mb 0.00 in0.0 mm 0.00 in/hr0.0 mm/hr 0.00 in0.0 mm
01:30 AM 74.3°F23.5°C 74.1°F23.4°C 99% 0.4 mph NW0.6 kmh NW 0.7 mph1.1 kmh 29.50 in999.0 mb 0.00 in0.0 mm 0.00 in/hr0.0 mm/hr 0.00 in0.0 mm
01:25 AM 74.5°F23.6°C 74.2°F23.4°C 99% 0.1 mph NW0.2 kmh NW 0.7 mph1.1 kmh 29.50 in999.0 mb 0.00 in0.0 mm 0.00 in/hr0.0 mm/hr 0.00 in0.0 mm
01:20 AM 74.5°F23.6°C 74.2°F23.4°C 99% 0.1 mph NW0.2 kmh NW 0.7 mph1.1 kmh 29.50 in999.0 mb 0.00 in0.0 mm 0.00 in/hr0.0 mm/hr 0.00 in0.0 mm
01:15 AM 74.5°F23.6°C 74.2°F23.4°C 99% 0.3 mph SW0.5 kmh SW 0.7 mph1.1 kmh 29.50 in999.0 mb 0.00 in0.0 mm 0.00 in/hr0.0 mm/hr 0.00 in0.0 mm
01:10 AM 74.5°F23.6°C 74.2°F23.4°C 99% 0.6 mph SW1.0 kmh SW 0.7 mph1.1 kmh 29.50 in999.0 mb 0.00 in0.0 mm 0.00 in/hr0.0 mm/hr 0.00 in0.0 mm
01:05 AM 74.5°F23.6°C 74.2°F23.4°C 99% 0.9 mph SW1.4 kmh SW 1.6 mph2.6 kmh 29.50 in999.0 mb 0.00 in0.0 mm 0.00 in/hr0.0 mm/hr 0.00 in0.0 mm
01:00 AM 74.5°F23.6°C 74.2°F23.4°C 99% 1.0 mph SW1.6 kmh SW 2.2 mph3.5 kmh 29.50 in999.0 mb 0.00 in0.0 mm 0.00 in/hr0.0 mm/hr 0.00 in0.0 mm
12:55 AM 74.5°F23.6°C 74.2°F23.4°C 99% 1.0 mph WNW1.6 kmh WNW 2.2 mph3.5 kmh 29.50 in999.0 mb 0.00 in0.0 mm 0.00 in/hr0.0 mm/hr 0.00 in0.0 mm
12:50 AM 74.5°F23.6°C 74.2°F23.4°C 99% 1.4 mph NW2.3 kmh NW 2.2 mph3.5 kmh 29.51 in999.3 mb 0.00 in0.0 mm 0.00 in/hr0.0 mm/hr 0.00 in0.0 mm
12:45 AM 74.5°F23.6°C 74.2°F23.4°C 99% 1.2 mph WNW1.9 kmh WNW 2.2 mph3.5 kmh 29.51 in999.3 mb 0.00 in0.0 mm 0.00 in/hr0.0 mm/hr 0.00 in0.0 mm
12:40 AM 74.5°F23.6°C 74.2°F23.4°C 99% 1.0 mph W1.6 kmh W 2.2 mph3.5 kmh 29.51 in999.3 mb 0.00 in0.0 mm 0.00 in/hr0.0 mm/hr 0.00 in0.0 mm
12:35 AM 74.5°F23.6°C 74.2°F23.4°C 99% 1.1 mph W1.8 kmh W 2.2 mph3.5 kmh 29.50 in999.0 mb 0.00 in0.0 mm 0.00 in/hr0.0 mm/hr 0.00 in0.0 mm
12:30 AM 74.5°F23.6°C 74.2°F23.4°C 99% 1.2 mph SW1.9 kmh SW 1.6 mph2.6 kmh 29.50 in999.0 mb 0.00 in0.0 mm 0.00 in/hr0.0 mm/hr 0.00 in0.0 mm
12:25 AM 74.5°F23.6°C 74.2°F23.4°C 99% 1.7 mph SW2.7 kmh SW 2.2 mph3.5 kmh 29.51 in999.3 mb 0.00 in0.0 mm 0.00 in/hr0.0 mm/hr 0.00 in0.0 mm
12:20 AM 74.5°F23.6°C 74.2°F23.4°C 99% 1.4 mph WSW2.3 kmh WSW 2.2 mph3.5 kmh 29.51 in999.3 mb 0.00 in0.0 mm 0.00 in/hr0.0 mm/hr 0.00 in0.0 mm
12:15 AM 74.3°F23.5°C 74.1°F23.4°C 99% 0.5 mph SW0.8 kmh SW 1.6 mph2.6 kmh 29.51 in999.3 mb 0.00 in0.0 mm 0.00 in/hr0.0 mm/hr 0.00 in0.0 mm
12:10 AM 74.3°F23.5°C 74.1°F23.4°C 99% Calm Calm -- 29.51 in999.3 mb 0.00 in0.0 mm 0.00 in/hr0.0 mm/hr 0.00 in0.0 mm
12:05 AM 74.3°F23.5°C 74.1°F23.4°C 99% Calm Calm -- 29.51 in999.3 mb 0.00 in0.0 mm 0.00 in/hr0.0 mm/hr 0.00 in0.0 mm
12:00 AM 74.3°F23.5°C 74.1°F23.4°C 99% Calm Calm -- 29.50 in999.0 mb 0.00 in0.0 mm 0.00 in/hr0.0 mm/hr 0.00 in0.0 mm